Malmstrom Air Force Base, MT

1:16 AM MDT on October 22, 2014 (GMT -0600)
Malmstrom AFB | Change Station
CLOSE
Current Station
Airport
Location: Malmstrom AFB,
Elevation: 3527 ft
Nearby Weather Stations

Elev 3527 ft 47.50 °N, 111.19 °W | Updated 20 minutes ago

Scattered Clouds
Scattered Clouds
43 °F
Feels Like 35 °F
N
18
Wind Variable Wind from SW

Today
High -- | Low -- °F
--% Chance of Precip.
Yesterday
High -- | Low -- °F
Precip. -- in
7:53 AM 6:23 PM
Waning Crescent, 3% visible
Pressure 29.97 in
Visibility 10.0 miles
Clouds Scattered Clouds 8500 ft
Windchill 35 °F
Dew Point 36 °F
Humidity 76%
Rainfall 0.00 in
Snow Depth Not available.
UV 0 out of 12
Pollen 2.40 out of 12
Air Quality Not available.
Flu Activity No Activity
METAR KGFA 220656Z AUTO 22016KT 10SM SCT085 06/02 A2992 RMK AO2 SLP149 T00630024

More Conditions Fewer Conditions

Pressure 29.97 in
Visibility 10.0 miles
Clouds Scattered Clouds 8500 ft
Windchill 35 °F
Dew Point 36 °F
Humidity 76%
Rainfall 0.00 in
Snow Depth Not available.
UV 0 out of 12
Pollen 2.40 out of 12
Air Quality Not available.
Flu Activity No Activity
METAR KGFA 220656Z AUTO 22016KT 10SM SCT085 06/02 A2992 RMK AO2 SLP149 T00630024

More Conditions Fewer Conditions

10-Day Weather Forecast

Almanac

Astronomy

Oct. 22, 2014 Rise Set
Actual Time 7:53 AM MDT 6:23 PM MDT
Civil Twilight 7:22 AM MDT 6:55 PM MDT
Nautical Twilight 6:46 AM MDT 7:31 PM MDT
Astronomical Twilight 6:10 AM MDT 8:06 PM MDT
Moon 6:33 AM MDT 5:55 PM MDT
Length of Visible Light 11h 32m
Length of Day
10h 30m
Tomorrow will be 3m 14s shorter.
Waning Crescent, 3% of the Moon is Illuminated
Today
Waning Crescent
Oct 23
New
Oct 30
First Quarter
Nov 6
Full
Nov 14
Last Quarter

Today's Extremes

State Highs State Lows

Community

WunderPhotos

Upload Photos

1,763,890 photos uploaded!

Nearby

Snow Depth

Station Depth Elevation
Stringer Creek 0 in 6550 ft
Onion Park 0 in 7410 ft
Deadman Creek 0 in 6450 ft
Spur Park 1 in 8100 ft
Pickfoot Creek 0 in 6650 ft

Earthquake Activity

City Distance Mag. Time & Date
No recent earthquake activity has been reported nearby.
Minimum magnitude displayed is 2.5.

Coastal Water Temperatures

Place Temperature
No Stations Reporting

Nearby Weather Stations